sensor_id;sensor_type;location;lat;lon;timestamp;temperature;humidity
20384;DHT22;46458;50.966;7.002;2022-09-09T00:01:27;18.90;99.90
20384;DHT22;46458;50.966;7.002;2022-09-09T00:04:05;18.90;99.90
20384;DHT22;46458;50.966;7.002;2022-09-09T00:06:50;18.80;99.90
20384;DHT22;46458;50.966;7.002;2022-09-09T00:09:23;18.80;99.90
20384;DHT22;46458;50.966;7.002;2022-09-09T00:11:56;18.80;99.90
20384;DHT22;46458;50.966;7.002;2022-09-09T00:14:35;18.80;99.90
20384;DHT22;46458;50.966;7.002;2022-09-09T00:17:09;18.80;99.90
20384;DHT22;46458;50.966;7.002;2022-09-09T00:19:44;18.80;99.90
20384;DHT22;46458;50.966;7.002;2022-09-09T00:22:21;18.70;99.90
20384;DHT22;46458;50.966;7.002;2022-09-09T00:24:53;18.70;99.90
20384;DHT22;46458;50.966;7.002;2022-09-09T00:27:28;18.70;99.90
20384;DHT22;46458;50.966;7.002;2022-09-09T00:30:11;18.80;99.90
20384;DHT22;46458;50.966;7.002;2022-09-09T00:32:42;18.80;99.90
20384;DHT22;46458;50.966;7.002;2022-09-09T00:35:17;18.80;99.90
20384;DHT22;46458;50.966;7.002;2022-09-09T00:37:52;18.70;99.90
20384;DHT22;46458;50.966;7.002;2022-09-09T00:40:28;18.70;99.90
20384;DHT22;46458;50.966;7.002;2022-09-09T00:43:22;18.70;99.90
20384;DHT22;46458;50.966;7.002;2022-09-09T00:46:06;18.70;99.90
20384;DHT22;46458;50.966;7.002;2022-09-09T00:48:45;18.60;99.90
20384;DHT22;46458;50.966;7.002;2022-09-09T00:51:22;18.60;99.90
20384;DHT22;46458;50.966;7.002;2022-09-09T00:54:15;18.60;99.90
20384;DHT22;46458;50.966;7.002;2022-09-09T00:56:53;18.60;99.90
20384;DHT22;46458;50.966;7.002;2022-09-09T00:59:31;18.60;99.90
20384;DHT22;46458;50.966;7.002;2022-09-09T01:02:04;18.60;99.90
20384;DHT22;46458;50.966;7.002;2022-09-09T01:04:38;18.60;99.90
20384;DHT22;46458;50.966;7.002;2022-09-09T01:07:14;18.60;99.90
20384;DHT22;46458;50.966;7.002;2022-09-09T01:09:58;18.60;99.90
20384;DHT22;46458;50.966;7.002;2022-09-09T01:12:35;18.60;99.90
20384;DHT22;46458;50.966;7.002;2022-09-09T01:15:10;18.60;99.90
20384;DHT22;46458;50.966;7.002;2022-09-09T01:17:52;18.60;99.90
20384;DHT22;46458;50.966;7.002;2022-09-09T01:20:25;18.60;99.90
20384;DHT22;46458;50.966;7.002;2022-09-09T01:23:23;18.50;99.90
20384;DHT22;46458;50.966;7.002;2022-09-09T01:26:27;18.40;99.90
20384;DHT22;46458;50.966;7.002;2022-09-09T01:29:00;18.30;99.90
20384;DHT22;46458;50.966;7.002;2022-09-09T01:31:37;18.30;99.90
20384;DHT22;46458;50.966;7.002;2022-09-09T01:34:11;18.30;99.90
20384;DHT22;46458;50.966;7.002;2022-09-09T01:36:46;18.40;99.90
20384;DHT22;46458;50.966;7.002;2022-09-09T01:39:17;18.30;99.90
20384;DHT22;46458;50.966;7.002;2022-09-09T01:41:54;18.30;99.90
20384;DHT22;46458;50.966;7.002;2022-09-09T01:44:28;18.20;99.90
20384;DHT22;46458;50.966;7.002;2022-09-09T01:46:58;18.30;99.90
20384;DHT22;46458;50.966;7.002;2022-09-09T01:49:27;18.30;99.90
20384;DHT22;46458;50.966;7.002;2022-09-09T01:51:57;18.30;99.90
20384;DHT22;46458;50.966;7.002;2022-09-09T01:54:33;18.40;99.90
20384;DHT22;46458;50.966;7.002;2022-09-09T01:57:17;18.40;99.90
20384;DHT22;46458;50.966;7.002;2022-09-09T01:59:54;18.40;99.90
20384;DHT22;46458;50.966;7.002;2022-09-09T02:02:32;18.40;99.90
20384;DHT22;46458;50.966;7.002;2022-09-09T02:05:22;18.40;99.90
20384;DHT22;46458;50.966;7.002;2022-09-09T02:08:03;18.40;99.90
20384;DHT22;46458;50.966;7.002;2022-09-09T02:10:56;18.40;99.90
20384;DHT22;46458;50.966;7.002;2022-09-09T02:13:38;18.40;99.90
20384;DHT22;46458;50.966;7.002;2022-09-09T02:16:13;18.40;99.90
20384;DHT22;46458;50.966;7.002;2022-09-09T02:18:48;18.50;99.90
20384;DHT22;46458;50.966;7.002;2022-09-09T02:21:30;18.40;99.90
20384;DHT22;46458;50.966;7.002;2022-09-09T02:24:04;18.40;99.90
20384;DHT22;46458;50.966;7.002;2022-09-09T02:26:41;18.40;99.90
20384;DHT22;46458;50.966;7.002;2022-09-09T02:29:16;18.40;99.90
20384;DHT22;46458;50.966;7.002;2022-09-09T02:31:47;18.40;99.90
20384;DHT22;46458;50.966;7.002;2022-09-09T02:34:23;18.40;99.90
20384;DHT22;46458;50.966;7.002;2022-09-09T02:36:54;18.40;99.90
20384;DHT22;46458;50.966;7.002;2022-09-09T02:39:23;18.40;99.90
20384;DHT22;46458;50.966;7.002;2022-09-09T02:41:52;18.40;99.90
20384;DHT22;46458;50.966;7.002;2022-09-09T02:44:31;18.30;99.90
20384;DHT22;46458;50.966;7.002;2022-09-09T02:47:11;18.30;99.90
20384;DHT22;46458;50.966;7.002;2022-09-09T02:49:55;18.30;99.90
20384;DHT22;46458;50.966;7.002;2022-09-09T02:52:30;18.30;99.90
20384;DHT22;46458;50.966;7.002;2022-09-09T02:55:07;18.20;99.90
20384;DHT22;46458;50.966;7.002;2022-09-09T02:57:40;18.30;99.90
20384;DHT22;46458;50.966;7.002;2022-09-09T03:00:14;18.30;99.90
20384;DHT22;46458;50.966;7.002;2022-09-09T03:02:46;18.30;99.90
20384;DHT22;46458;50.966;7.002;2022-09-09T03:05:15;18.30;99.90
20384;DHT22;46458;50.966;7.002;2022-09-09T03:07:47;18.30;99.90
20384;DHT22;46458;50.966;7.002;2022-09-09T03:10:18;18.30;99.90
20384;DHT22;46458;50.966;7.002;2022-09-09T03:12:47;18.30;99.90
20384;DHT22;46458;50.966;7.002;2022-09-09T03:15:19;18.30;99.90
20384;DHT22;46458;50.966;7.002;2022-09-09T03:17:48;18.30;99.90
20384;DHT22;46458;50.966;7.002;2022-09-09T03:20:17;18.30;99.90
20384;DHT22;46458;50.966;7.002;2022-09-09T03:22:46;18.30;99.90
20384;DHT22;46458;50.966;7.002;2022-09-09T03:25:15;18.30;99.90
20384;DHT22;46458;50.966;7.002;2022-09-09T03:27:44;18.30;99.90
20384;DHT22;46458;50.966;7.002;2022-09-09T03:30:13;18.30;99.90
20384;DHT22;46458;50.966;7.002;2022-09-09T03:32:45;18.30;99.90
20384;DHT22;46458;50.966;7.002;2022-09-09T03:35:14;18.30;99.90
20384;DHT22;46458;50.966;7.002;2022-09-09T03:37:43;18.30;99.90
20384;DHT22;46458;50.966;7.002;2022-09-09T03:40:14;18.30;99.90
20384;DHT22;46458;50.966;7.002;2022-09-09T03:42:46;18.30;99.90
20384;DHT22;46458;50.966;7.002;2022-09-09T03:45:17;18.40;99.90
20384;DHT22;46458;50.966;7.002;2022-09-09T03:47:49;18.30;99.90
20384;DHT22;46458;50.966;7.002;2022-09-09T03:50:18;18.30;99.90
20384;DHT22;46458;50.966;7.002;2022-09-09T03:52:47;18.30;99.90
20384;DHT22;46458;50.966;7.002;2022-09-09T03:55:20;18.20;99.90
20384;DHT22;46458;50.966;7.002;2022-09-09T03:57:50;18.30;99.90
20384;DHT22;46458;50.966;7.002;2022-09-09T04:00:22;18.30;99.90
20384;DHT22;46458;50.966;7.002;2022-09-09T04:02:55;18.30;99.90
20384;DHT22;46458;50.966;7.002;2022-09-09T04:05:24;18.30;99.90
20384;DHT22;46458;50.966;7.002;2022-09-09T04:07:53;18.20;99.90
20384;DHT22;46458;50.966;7.002;2022-09-09T04:10:22;18.20;99.90
20384;DHT22;46458;50.966;7.002;2022-09-09T04:12:53;18.20;99.90
20384;DHT22;46458;50.966;7.002;2022-09-09T04:15:22;18.10;99.90
20384;DHT22;46458;50.966;7.002;2022-09-09T04:17:51;18.10;99.90
20384;DHT22;46458;50.966;7.002;2022-09-09T04:20:22;18.10;99.90
20384;DHT22;46458;50.966;7.002;2022-09-09T04:22:51;18.10;99.90
20384;DHT22;46458;50.966;7.002;2022-09-09T04:25:20;18.20;99.90
20384;DHT22;46458;50.966;7.002;2022-09-09T04:27:53;18.20;99.90
20384;DHT22;46458;50.966;7.002;2022-09-09T04:30:22;18.10;99.90
20384;DHT22;46458;50.966;7.002;2022-09-09T04:32:53;18.20;99.90
20384;DHT22;46458;50.966;7.002;2022-09-09T04:35:26;18.20;99.90
20384;DHT22;46458;50.966;7.002;2022-09-09T04:37:55;18.20;99.90
20384;DHT22;46458;50.966;7.002;2022-09-09T04:40:25;18.20;99.90
20384;DHT22;46458;50.966;7.002;2022-09-09T04:42:55;18.30;99.90
20384;DHT22;46458;50.966;7.002;2022-09-09T04:45:24;18.20;99.90
20384;DHT22;46458;50.966;7.002;2022-09-09T04:47:53;18.30;99.90
20384;DHT22;46458;50.966;7.002;2022-09-09T04:50:25;18.30;99.90
20384;DHT22;46458;50.966;7.002;2022-09-09T04:53:00;18.30;99.90
20384;DHT22;46458;50.966;7.002;2022-09-09T04:55:30;18.30;99.90
20384;DHT22;46458;50.966;7.002;2022-09-09T04:58:03;18.20;99.90
20384;DHT22;46458;50.966;7.002;2022-09-09T05:00:33;18.20;99.90
20384;DHT22;46458;50.966;7.002;2022-09-09T05:03:05;18.20;99.90
20384;DHT22;46458;50.966;7.002;2022-09-09T05:05:37;18.20;99.90
20384;DHT22;46458;50.966;7.002;2022-09-09T05:08:09;18.20;99.90
20384;DHT22;46458;50.966;7.002;2022-09-09T05:10:38;18.20;99.90
20384;DHT22;46458;50.966;7.002;2022-09-09T05:13:11;18.10;99.90
20384;DHT22;46458;50.966;7.002;2022-09-09T05:15:50;18.10;99.90
20384;DHT22;46458;50.966;7.002;2022-09-09T05:18:20;18.00;99.90
20384;DHT22;46458;50.966;7.002;2022-09-09T05:20:52;18.10;99.90
20384;DHT22;46458;50.966;7.002;2022-09-09T05:23:21;18.00;99.90
20384;DHT22;46458;50.966;7.002;2022-09-09T05:25:56;18.10;99.90
20384;DHT22;46458;50.966;7.002;2022-09-09T05:28:26;18.00;99.90
20384;DHT22;46458;50.966;7.002;2022-09-09T05:30:57;17.90;99.90
20384;DHT22;46458;50.966;7.002;2022-09-09T05:33:27;17.90;99.90
20384;DHT22;46458;50.966;7.002;2022-09-09T05:36:02;17.80;99.90
20384;DHT22;46458;50.966;7.002;2022-09-09T05:38:32;17.70;99.90
20384;DHT22;46458;50.966;7.002;2022-09-09T05:41:02;17.60;99.90
20384;DHT22;46458;50.966;7.002;2022-09-09T05:43:31;17.60;99.90
20384;DHT22;46458;50.966;7.002;2022-09-09T05:46:05;17.60;99.90
20384;DHT22;46458;50.966;7.002;2022-09-09T05:48:35;17.60;99.90
20384;DHT22;46458;50.966;7.002;2022-09-09T05:51:09;17.60;99.90
20384;DHT22;46458;50.966;7.002;2022-09-09T05:53:41;17.60;99.90
20384;DHT22;46458;50.966;7.002;2022-09-09T05:56:12;17.60;99.90
20384;DHT22;46458;50.966;7.002;2022-09-09T05:58:42;17.60;99.90
20384;DHT22;46458;50.966;7.002;2022-09-09T06:01:14;17.70;99.90
20384;DHT22;46458;50.966;7.002;2022-09-09T06:03:44;17.70;99.90
20384;DHT22;46458;50.966;7.002;2022-09-09T06:06:20;17.80;99.90
20384;DHT22;46458;50.966;7.002;2022-09-09T06:08:51;17.80;99.90
20384;DHT22;46458;50.966;7.002;2022-09-09T06:11:24;17.90;99.90
20384;DHT22;46458;50.966;7.002;2022-09-09T06:13:53;18.00;99.90
20384;DHT22;46458;50.966;7.002;2022-09-09T06:16:29;18.00;99.90
20384;DHT22;46458;50.966;7.002;2022-09-09T06:18:59;17.90;99.90
20384;DHT22;46458;50.966;7.002;2022-09-09T06:21:37;18.00;99.90
20384;DHT22;46458;50.966;7.002;2022-09-09T06:24:07;18.00;99.90
20384;DHT22;46458;50.966;7.002;2022-09-09T06:26:39;18.00;99.90
20384;DHT22;46458;50.966;7.002;2022-09-09T06:29:16;17.90;99.90
20384;DHT22;46458;50.966;7.002;2022-09-09T06:31:45;18.00;99.90
20384;DHT22;46458;50.966;7.002;2022-09-09T06:34:22;18.00;99.90
20384;DHT22;46458;50.966;7.002;2022-09-09T06:36:59;18.00;99.90
20384;DHT22;46458;50.966;7.002;2022-09-09T06:39:45;17.90;99.90
20384;DHT22;46458;50.966;7.002;2022-09-09T06:42:15;17.90;99.90
20384;DHT22;46458;50.966;7.002;2022-09-09T06:44:50;18.00;99.90
20384;DHT22;46458;50.966;7.002;2022-09-09T06:47:31;17.90;99.90
20384;DHT22;46458;50.966;7.002;2022-09-09T06:50:00;17.90;99.90
20384;DHT22;46458;50.966;7.002;2022-09-09T06:52:34;18.00;99.90
20384;DHT22;46458;50.966;7.002;2022-09-09T06:55:05;18.00;99.90
20384;DHT22;46458;50.966;7.002;2022-09-09T06:57:35;18.10;99.90
20384;DHT22;46458;50.966;7.002;2022-09-09T07:00:11;18.10;99.90
20384;DHT22;46458;50.966;7.002;2022-09-09T07:02:40;18.20;99.90
20384;DHT22;46458;50.966;7.002;2022-09-09T07:05:10;18.30;99.90
20384;DHT22;46458;50.966;7.002;2022-09-09T07:07:44;18.40;99.90
20384;DHT22;46458;50.966;7.002;2022-09-09T07:10:15;18.40;99.90
20384;DHT22;46458;50.966;7.002;2022-09-09T07:12:53;18.50;99.90
20384;DHT22;46458;50.966;7.002;2022-09-09T07:15:24;18.60;99.90
20384;DHT22;46458;50.966;7.002;2022-09-09T07:17:53;18.80;99.90
20384;DHT22;46458;50.966;7.002;2022-09-09T07:20:22;18.80;99.90
20384;DHT22;46458;50.966;7.002;2022-09-09T07:22:55;18.90;99.90
20384;DHT22;46458;50.966;7.002;2022-09-09T07:25:25;18.80;99.90
20384;DHT22;46458;50.966;7.002;2022-09-09T07:27:59;19.00;99.90
20384;DHT22;46458;50.966;7.002;2022-09-09T07:30:29;19.10;99.90
20384;DHT22;46458;50.966;7.002;2022-09-09T07:32:58;19.10;99.90
20384;DHT22;46458;50.966;7.002;2022-09-09T07:35:28;19.10;99.90
20384;DHT22;46458;50.966;7.002;2022-09-09T07:37:57;19.30;99.90
20384;DHT22;46458;50.966;7.002;2022-09-09T07:40:27;19.40;99.90
20384;DHT22;46458;50.966;7.002;2022-09-09T07:42:58;19.50;99.90
20384;DHT22;46458;50.966;7.002;2022-09-09T07:45:27;19.70;99.90
20384;DHT22;46458;50.966;7.002;2022-09-09T07:47:59;19.80;99.90
20384;DHT22;46458;50.966;7.002;2022-09-09T07:50:29;19.70;99.90
20384;DHT22;46458;50.966;7.002;2022-09-09T07:52:58;19.60;99.90
20384;DHT22;46458;50.966;7.002;2022-09-09T07:55:31;19.50;99.90
20384;DHT22;46458;50.966;7.002;2022-09-09T07:58:02;19.70;99.90
20384;DHT22;46458;50.966;7.002;2022-09-09T08:00:31;19.90;99.90
20384;DHT22;46458;50.966;7.002;2022-09-09T08:03:03;20.00;99.90
20384;DHT22;46458;50.966;7.002;2022-09-09T08:05:39;20.10;99.90
20384;DHT22;46458;50.966;7.002;2022-09-09T08:08:08;20.10;99.90
20384;DHT22;46458;50.966;7.002;2022-09-09T08:10:38;20.00;99.90
20384;DHT22;46458;50.966;7.002;2022-09-09T08:13:10;20.00;99.90
20384;DHT22;46458;50.966;7.002;2022-09-09T08:15:40;20.00;99.90
20384;DHT22;46458;50.966;7.002;2022-09-09T08:18:10;20.00;99.90
20384;DHT22;46458;50.966;7.002;2022-09-09T08:20:39;20.00;99.90
20384;DHT22;46458;50.966;7.002;2022-09-09T08:23:08;19.90;99.90
20384;DHT22;46458;50.966;7.002;2022-09-09T08:25:40;19.90;99.90
20384;DHT22;46458;50.966;7.002;2022-09-09T08:28:12;19.80;99.90
20384;DHT22;46458;50.966;7.002;2022-09-09T08:30:41;19.90;99.90
20384;DHT22;46458;50.966;7.002;2022-09-09T08:33:12;19.80;99.90
20384;DHT22;46458;50.966;7.002;2022-09-09T08:35:50;19.80;99.90
20384;DHT22;46458;50.966;7.002;2022-09-09T08:38:19;20.00;99.90
20384;DHT22;46458;50.966;7.002;2022-09-09T08:40:52;20.00;99.90
20384;DHT22;46458;50.966;7.002;2022-09-09T08:43:29;20.50;99.90
20384;DHT22;46458;50.966;7.002;2022-09-09T08:46:05;20.50;99.90
20384;DHT22;46458;50.966;7.002;2022-09-09T08:48:46;20.70;99.90
20384;DHT22;46458;50.966;7.002;2022-09-09T08:51:18;20.90;99.90
20384;DHT22;46458;50.966;7.002;2022-09-09T08:53:51;20.80;99.90
20384;DHT22;46458;50.966;7.002;2022-09-09T08:56:33;20.60;99.90
20384;DHT22;46458;50.966;7.002;2022-09-09T08:59:07;20.50;99.90
20384;DHT22;46458;50.966;7.002;2022-09-09T09:01:51;20.50;99.90
20384;DHT22;46458;50.966;7.002;2022-09-09T09:04:45;20.40;99.90
20384;DHT22;46458;50.966;7.002;2022-09-09T09:07:29;20.40;99.90
20384;DHT22;46458;50.966;7.002;2022-09-09T09:10:11;20.70;99.90
20384;DHT22;46458;50.966;7.002;2022-09-09T09:12:45;21.10;99.90
20384;DHT22;46458;50.966;7.002;2022-09-09T09:15:25;21.10;99.90
20384;DHT22;46458;50.966;7.002;2022-09-09T09:17:55;21.20;99.90
20384;DHT22;46458;50.966;7.002;2022-09-09T09:20:33;20.70;99.90
20384;DHT22;46458;50.966;7.002;2022-09-09T09:23:05;20.80;99.90
20384;DHT22;46458;50.966;7.002;2022-09-09T09:25:39;20.60;99.90
20384;DHT22;46458;50.966;7.002;2022-09-09T09:28:13;20.50;99.90
20384;DHT22;46458;50.966;7.002;2022-09-09T09:30:51;20.60;99.90
20384;DHT22;46458;50.966;7.002;2022-09-09T09:33:26;20.50;99.90
20384;DHT22;46458;50.966;7.002;2022-09-09T09:36:00;20.40;99.90
20384;DHT22;46458;50.966;7.002;2022-09-09T09:38:32;20.40;99.90
20384;DHT22;46458;50.966;7.002;2022-09-09T09:41:01;20.30;99.90
20384;DHT22;46458;50.966;7.002;2022-09-09T09:43:32;20.30;99.90
20384;DHT22;46458;50.966;7.002;2022-09-09T09:46:19;20.50;99.90
20384;DHT22;46458;50.966;7.002;2022-09-09T09:48:56;20.50;99.90
20384;DHT22;46458;50.966;7.002;2022-09-09T09:51:26;20.60;99.90
20384;DHT22;46458;50.966;7.002;2022-09-09T09:54:08;20.50;99.90
20384;DHT22;46458;50.966;7.002;2022-09-09T09:56:39;20.20;99.90
20384;DHT22;46458;50.966;7.002;2022-09-09T09:59:23;20.20;99.90
20384;DHT22;46458;50.966;7.002;2022-09-09T10:02:22;20.30;99.90
20384;DHT22;46458;50.966;7.002;2022-09-09T10:05:03;20.50;99.90
20384;DHT22;46458;50.966;7.002;2022-09-09T10:07:35;20.70;99.90
20384;DHT22;46458;50.966;7.002;2022-09-09T10:10:08;21.00;99.90
20384;DHT22;46458;50.966;7.002;2022-09-09T10:12:49;21.40;99.90
20384;DHT22;46458;50.966;7.002;2022-09-09T10:15:37;21.20;99.90
20384;DHT22;46458;50.966;7.002;2022-09-09T10:18:28;21.20;99.90
20384;DHT22;46458;50.966;7.002;2022-09-09T10:21:04;21.10;99.90
20384;DHT22;46458;50.966;7.002;2022-09-09T10:23:49;21.10;99.90
20384;DHT22;46458;50.966;7.002;2022-09-09T10:26:30;21.00;99.90
20384;DHT22;46458;50.966;7.002;2022-09-09T10:29:15;20.70;99.90
20384;DHT22;46458;50.966;7.002;2022-09-09T10:31:53;20.60;99.90
20384;DHT22;46458;50.966;7.002;2022-09-09T10:34:51;20.50;99.90
20384;DHT22;46458;50.966;7.002;2022-09-09T10:37:35;20.40;99.90
20384;DHT22;46458;50.966;7.002;2022-09-09T10:40:19;20.40;99.90
20384;DHT22;46458;50.966;7.002;2022-09-09T10:42:50;20.80;99.90
20384;DHT22;46458;50.966;7.002;2022-09-09T10:45:23;20.90;99.90
20384;DHT22;46458;50.966;7.002;2022-09-09T10:48:10;20.90;99.90
20384;DHT22;46458;50.966;7.002;2022-09-09T10:50:51;21.00;99.90
20384;DHT22;46458;50.966;7.002;2022-09-09T10:53:32;21.20;99.90
20384;DHT22;46458;50.966;7.002;2022-09-09T10:56:07;21.10;99.90
20384;DHT22;46458;50.966;7.002;2022-09-09T10:58:47;21.20;99.90
20384;DHT22;46458;50.966;7.002;2022-09-09T11:01:20;21.10;99.90
20384;DHT22;46458;50.966;7.002;2022-09-09T11:04:00;21.40;99.90
20384;DHT22;46458;50.966;7.002;2022-09-09T11:06:39;21.50;99.90
20384;DHT22;46458;50.966;7.002;2022-09-09T11:09:15;21.40;99.90
20384;DHT22;46458;50.966;7.002;2022-09-09T11:11:50;21.30;99.90
20384;DHT22;46458;50.966;7.002;2022-09-09T11:14:26;21.50;99.90
20384;DHT22;46458;50.966;7.002;2022-09-09T11:17:03;21.60;99.90
20384;DHT22;46458;50.966;7.002;2022-09-09T11:19:35;22.20;99.90
20384;DHT22;46458;50.966;7.002;2022-09-09T11:22:15;21.70;99.90
20384;DHT22;46458;50.966;7.002;2022-09-09T11:24:48;21.80;99.90
20384;DHT22;46458;50.966;7.002;2022-09-09T11:27:21;21.80;99.90
20384;DHT22;46458;50.966;7.002;2022-09-09T11:30:05;21.90;99.90
20384;DHT22;46458;50.966;7.002;2022-09-09T11:35:37;21.30;99.90
20384;DHT22;46458;50.966;7.002;2022-09-09T11:38:21;21.30;99.90
20384;DHT22;46458;50.966;7.002;2022-09-09T11:40:58;21.40;99.90
20384;DHT22;46458;50.966;7.002;2022-09-09T11:43:30;21.40;99.90
20384;DHT22;46458;50.966;7.002;2022-09-09T11:46:02;21.30;99.90
20384;DHT22;46458;50.966;7.002;2022-09-09T11:48:34;21.40;99.90
20384;DHT22;46458;50.966;7.002;2022-09-09T11:51:06;21.60;99.90
20384;DHT22;46458;50.966;7.002;2022-09-09T11:53:48;21.70;99.90
20384;DHT22;46458;50.966;7.002;2022-09-09T11:56:26;21.70;99.90
20384;DHT22;46458;50.966;7.002;2022-09-09T11:58:59;21.70;99.90
20384;DHT22;46458;50.966;7.002;2022-09-09T12:01:34;21.70;99.90
20384;DHT22;46458;50.966;7.002;2022-09-09T12:04:15;21.60;99.90
20384;DHT22;46458;50.966;7.002;2022-09-09T12:06:47;21.50;99.90
20384;DHT22;46458;50.966;7.002;2022-09-09T12:09:23;21.50;99.90
20384;DHT22;46458;50.966;7.002;2022-09-09T12:12:17;21.50;99.90
20384;DHT22;46458;50.966;7.002;2022-09-09T12:15:17;21.50;99.90
20384;DHT22;46458;50.966;7.002;2022-09-09T12:17:48;21.30;99.90
20384;DHT22;46458;50.966;7.002;2022-09-09T12:20:23;21.10;99.90
20384;DHT22;46458;50.966;7.002;2022-09-09T12:23:17;21.10;99.90
20384;DHT22;46458;50.966;7.002;2022-09-09T12:25:57;21.20;99.90
20384;DHT22;46458;50.966;7.002;2022-09-09T12:28:38;21.60;99.90
20384;DHT22;46458;50.966;7.002;2022-09-09T12:31:12;21.60;99.90
20384;DHT22;46458;50.966;7.002;2022-09-09T12:33:45;21.70;99.90
20384;DHT22;46458;50.966;7.002;2022-09-09T12:36:16;21.70;99.90
20384;DHT22;46458;50.966;7.002;2022-09-09T12:38:47;21.80;99.90
20384;DHT22;46458;50.966;7.002;2022-09-09T12:41:22;21.50;99.90
20384;DHT22;46458;50.966;7.002;2022-09-09T12:43:51;21.40;99.90
20384;DHT22;46458;50.966;7.002;2022-09-09T12:46:34;21.30;99.90
20384;DHT22;46458;50.966;7.002;2022-09-09T12:49:05;21.20;99.90
20384;DHT22;46458;50.966;7.002;2022-09-09T12:51:36;21.10;99.90
20384;DHT22;46458;50.966;7.002;2022-09-09T12:54:13;21.10;99.90
20384;DHT22;46458;50.966;7.002;2022-09-09T12:56:46;21.10;99.90
20384;DHT22;46458;50.966;7.002;2022-09-09T12:59:22;21.30;99.90
20384;DHT22;46458;50.966;7.002;2022-09-09T13:01:56;21.20;99.90
20384;DHT22;46458;50.966;7.002;2022-09-09T13:04:25;21.40;99.90
20384;DHT22;46458;50.966;7.002;2022-09-09T13:07:06;21.70;99.90
20384;DHT22;46458;50.966;7.002;2022-09-09T13:09:37;22.10;99.90
20384;DHT22;46458;50.966;7.002;2022-09-09T13:12:13;22.10;99.90
20384;DHT22;46458;50.966;7.002;2022-09-09T13:14:44;22.20;99.90
20384;DHT22;46458;50.966;7.002;2022-09-09T13:17:20;22.10;99.90
20384;DHT22;46458;50.966;7.002;2022-09-09T13:19:50;22.00;99.90
20384;DHT22;46458;50.966;7.002;2022-09-09T13:22:26;21.90;99.90
20384;DHT22;46458;50.966;7.002;2022-09-09T13:25:03;21.50;99.90
20384;DHT22;46458;50.966;7.002;2022-09-09T13:27:39;21.50;99.90
20384;DHT22;46458;50.966;7.002;2022-09-09T13:30:21;21.50;99.90
20384;DHT22;46458;50.966;7.002;2022-09-09T13:33:06;21.60;99.90
20384;DHT22;46458;50.966;7.002;2022-09-09T13:35:44;21.70;99.90
20384;DHT22;46458;50.966;7.002;2022-09-09T13:38:15;21.80;99.90
20384;DHT22;46458;50.966;7.002;2022-09-09T13:40:58;22.00;99.90
20384;DHT22;46458;50.966;7.002;2022-09-09T13:43:34;22.20;99.90
20384;DHT22;46458;50.966;7.002;2022-09-09T13:46:05;22.30;99.90
20384;DHT22;46458;50.966;7.002;2022-09-09T13:48:34;22.20;99.90
20384;DHT22;46458;50.966;7.002;2022-09-09T13:51:04;21.80;99.90
20384;DHT22;46458;50.966;7.002;2022-09-09T13:53:33;21.70;99.90
20384;DHT22;46458;50.966;7.002;2022-09-09T13:56:02;22.10;99.90
20384;DHT22;46458;50.966;7.002;2022-09-09T13:58:33;22.50;99.90
20384;DHT22;46458;50.966;7.002;2022-09-09T14:01:02;22.80;99.90
20384;DHT22;46458;50.966;7.002;2022-09-09T14:03:31;22.90;99.90
20384;DHT22;46458;50.966;7.002;2022-09-09T14:06:00;23.00;99.90
20384;DHT22;46458;50.966;7.002;2022-09-09T14:08:29;23.20;99.90
20384;DHT22;46458;50.966;7.002;2022-09-09T14:11:02;23.10;99.90
20384;DHT22;46458;50.966;7.002;2022-09-09T14:13:34;22.80;99.90
20384;DHT22;46458;50.966;7.002;2022-09-09T14:16:09;22.60;99.90
20384;DHT22;46458;50.966;7.002;2022-09-09T14:18:38;22.40;99.90
20384;DHT22;46458;50.966;7.002;2022-09-09T14:21:07;22.10;99.90
20384;DHT22;46458;50.966;7.002;2022-09-09T14:23:35;21.80;99.90
20384;DHT22;46458;50.966;7.002;2022-09-09T14:26:04;21.70;99.90
20384;DHT22;46458;50.966;7.002;2022-09-09T14:28:36;21.60;99.90
20384;DHT22;46458;50.966;7.002;2022-09-09T14:31:06;21.40;99.90
20384;DHT22;46458;50.966;7.002;2022-09-09T14:33:39;21.40;99.90
20384;DHT22;46458;50.966;7.002;2022-09-09T14:36:09;21.30;99.90
20384;DHT22;46458;50.966;7.002;2022-09-09T14:38:38;21.30;99.90
20384;DHT22;46458;50.966;7.002;2022-09-09T14:41:09;21.10;99.90
20384;DHT22;46458;50.966;7.002;2022-09-09T14:43:41;20.70;99.90
20384;DHT22;46458;50.966;7.002;2022-09-09T14:46:11;20.30;99.90
20384;DHT22;46458;50.966;7.002;2022-09-09T14:48:40;19.50;99.90
20384;DHT22;46458;50.966;7.002;2022-09-09T14:51:11;18.80;99.90
20384;DHT22;46458;50.966;7.002;2022-09-09T14:53:42;18.40;99.90
20384;DHT22;46458;50.966;7.002;2022-09-09T14:56:13;18.50;99.90
20384;DHT22;46458;50.966;7.002;2022-09-09T14:58:47;18.70;99.90
20384;DHT22;46458;50.966;7.002;2022-09-09T15:01:18;18.80;99.90
20384;DHT22;46458;50.966;7.002;2022-09-09T15:03:52;18.90;99.90
20384;DHT22;46458;50.966;7.002;2022-09-09T15:06:22;18.90;99.90
20384;DHT22;46458;50.966;7.002;2022-09-09T15:08:53;19.10;99.90
20384;DHT22;46458;50.966;7.002;2022-09-09T15:11:25;19.30;99.90
20384;DHT22;46458;50.966;7.002;2022-09-09T15:13:58;19.40;99.90
20384;DHT22;46458;50.966;7.002;2022-09-09T15:16:28;19.60;99.90
20384;DHT22;46458;50.966;7.002;2022-09-09T15:18:59;19.70;99.90
20384;DHT22;46458;50.966;7.002;2022-09-09T15:21:30;19.80;99.90
20384;DHT22;46458;50.966;7.002;2022-09-09T15:24:03;19.70;99.90
20384;DHT22;46458;50.966;7.002;2022-09-09T15:26:33;19.80;99.90
20384;DHT22;46458;50.966;7.002;2022-09-09T15:29:10;20.00;99.90
20384;DHT22;46458;50.966;7.002;2022-09-09T15:31:39;20.00;99.90
20384;DHT22;46458;50.966;7.002;2022-09-09T15:34:08;20.00;99.90
20384;DHT22;46458;50.966;7.002;2022-09-09T15:36:38;19.80;99.90
20384;DHT22;46458;50.966;7.002;2022-09-09T15:39:09;19.70;99.90
20384;DHT22;46458;50.966;7.002;2022-09-09T15:41:41;19.80;99.90
20384;DHT22;46458;50.966;7.002;2022-09-09T15:44:13;19.80;99.90
20384;DHT22;46458;50.966;7.002;2022-09-09T15:46:43;19.90;99.90
20384;DHT22;46458;50.966;7.002;2022-09-09T15:49:14;19.70;99.90
20384;DHT22;46458;50.966;7.002;2022-09-09T15:51:45;19.80;99.90
20384;DHT22;46458;50.966;7.002;2022-09-09T15:54:15;19.80;99.90
20384;DHT22;46458;50.966;7.002;2022-09-09T15:56:47;19.80;99.90
20384;DHT22;46458;50.966;7.002;2022-09-09T15:59:25;19.90;99.90
20384;DHT22;46458;50.966;7.002;2022-09-09T16:01:55;19.70;99.90
20384;DHT22;46458;50.966;7.002;2022-09-09T16:04:26;19.70;99.90
20384;DHT22;46458;50.966;7.002;2022-09-09T16:06:57;19.90;99.90
20384;DHT22;46458;50.966;7.002;2022-09-09T16:09:30;20.40;99.90
20384;DHT22;46458;50.966;7.002;2022-09-09T16:12:00;20.70;99.90
20384;DHT22;46458;50.966;7.002;2022-09-09T16:14:35;20.30;99.90
20384;DHT22;46458;50.966;7.002;2022-09-09T16:17:05;19.90;99.90